| Date | Time | Temp. (oF) | Dew Point (oF) | Rel. Hum. (%) | Press. (in.) | Wind Dir. | Wind Speed (mph) | Hourly Rainfall (in.) |
|
|---|---|---|---|---|---|---|---|---|---|
| 1 | 06/19 | 00:00 | 62 | 61 | 98 | 30.24 | NNW | 1 | 0.00 |
| 2 | 06/18 | 23:00 | 63 | 62 | 97 | 30.23 | NNE | 2 | 0.00 |
| 3 | 06/18 | 22:00 | 63 | 62 | 97 | 30.22 | ESE | 2 | 0.00 |
| 4 | 06/18 | 21:00 | 65 | 63 | 95 | 30.20 | E | 2 | 0.02 |
| 5 | 06/18 | 20:00 | 66 | 62 | 89 | 30.19 | SE | 3 | 0.00 |
| 6 | 06/18 | 19:00 | 66 | 62 | 87 | 30.18 | E | 5 | 0.00 |
| 7 | 06/18 | 18:00 | 65 | 63 | 94 | 30.18 | NE | 6 | 0.00 |
| 8 | 06/18 | 17:00 | 67 | 62 | 86 | 30.14 | S | 11 | 0.16 |
| 9 | 06/18 | 16:00 | 78 | 58 | 52 | 30.10 | SSE | 6 | 0.00 |
| 10 | 06/18 | 15:00 | 79 | 58 | 49 | 30.13 | S | 7 | 0.00 |
| 11 | 06/18 | 14:00 | 78 | 59 | 53 | 30.14 | NNW | 2 | 0.00 |
| 12 | 06/18 | 13:00 | 76 | 56 | 52 | 30.15 | ESE | 3 | 0.00 |
| 13 | 06/18 | 12:00 | 75 | 58 | 57 | 30.16 | E | 4 | 0.00 |
| 14 | 06/18 | 11:00 | 72 | 56 | 58 | 30.14 | SSE | 4 | 0.00 |
| 15 | 06/18 | 10:00 | 67 | 59 | 76 | 30.15 | SSE | 2 | 0.00 |
| 16 | 06/18 | 09:00 | 61 | 60 | 99 | 30.14 | N | 2 | 0.00 |
| 17 | 06/18 | 08:00 | 58 | 58 | 100 | 30.13 | SSE | 3 | 0.00 |
| 18 | 06/18 | 07:00 | 54 | 54 | 100 | 30.12 | S | 0 | 0.00 |
| 19 | 06/18 | 06:00 | 53 | 53 | 100 | 30.09 | SE | 0 | 0.00 |
| 20 | 06/18 | 05:00 | 53 | 52 | 99 | 30.06 | NNW | 3 | 0.00 |
| 21 | 06/18 | 04:00 | 54 | 53 | 99 | 30.05 | SSW | 0 | 0.00 |
| 22 | 06/18 | 03:00 | 55 | 54 | 100 | 30.04 | SSW | 0 | 0.00 |
| 23 | 06/18 | 02:00 | 55 | 54 | 97 | 30.03 | ESE | 0 | 0.00 |
| 24 | 06/18 | 01:00 | 56 | 55 | 97 | 30.02 | S | 0 | 0.00 |